^^
B2 Weather Station Historical Data
 
Daily Summary for August 25, 2019 Units:  English    Metric   Both
Daily Weekly Monthly Yearly Custom
  Current: High: Low: Average:
Temperature: 76.5 °F 78.1 °F 53.9 °F 64.5 °F
Dew Point: 60.6 °F 63 °F 51.9 °F 57.2 °F
Humidity: 58% 95% 54% 79%
Wind Speed: 4.6mph 17.3mph 0mph 4.7mph
Wind Gust: 1.4mph 11mph - -
WindESE - - ESE
Pressure: 29.98 in 30.17 in 29.98 in -
Precipitation: 0 in      
Historical Graphs
 
 
Tabular Data for August 25, 2019
Time Temperature Dew Point Pressure Wind Wind Speed Wind Gust Humidity Rainfall Rate (Hourly) solar
00:00 55.2 °F 53.5 °F 30.17 in Calm     94% 0 in 0.00 W/m2
00:05 55.3 °F 53.6 °F 30.17 in Calm     94% 0 in 0.00 W/m2
00:10 55.4 °F 53.7 °F 30.17 in Calm     94% 0 in 0.00 W/m2
00:15 55.4 °F 53.7 °F 30.17 in Calm     94% 0 in 0.00 W/m2
00:20 55.7 °F 54 °F 30.17 in Calm     94% 0 in 0.00 W/m2
00:25 56 °F 54.3 °F 30.16 in East 3.5 mph 1.6 mph 94% 0 in 0.00 W/m2
00:30 56.3 °F 54.3 °F 30.16 in East 3.5 mph 1.6 mph 93% 0 in 0.00 W/m2
00:35 56.6 °F 54.6 °F 30.16 in ESE 3.5 mph 0.5 mph 93% 0 in 0.00 W/m2
00:40 56.9 °F 54.6 °F 30.16 in Calm     92% 0 in 0.00 W/m2
00:45 57 °F 54.7 °F 30.16 in ENE 4.6 mph 0.8 mph 92% 0 in 0.00 W/m2
00:50 57.1 °F 54.5 °F 30.16 in ESE 2.3 mph 0.2 mph 91% 0 in 0.00 W/m2
00:55 57.1 °F 54.5 °F 30.16 in East 1.2 mph 0.2 mph 91% 0 in 0.00 W/m2
01:00 57.1 °F 54.5 °F 30.15 in East 1.2 mph   91% 0 in 0.00 W/m2
01:05 57.1 °F 54.5 °F 30.15 in East 2.3 mph 0.8 mph 91% 0 in 0.00 W/m2
01:10 57 °F 54.4 °F 30.15 in East 1.2 mph   91% 0 in 0.00 W/m2
01:15 57 °F 54.4 °F 30.15 in ESE 3.5 mph 0.5 mph 91% 0 in 0.00 W/m2
01:20 57 °F 54.4 °F 30.15 in Calm     91% 0 in 0.00 W/m2
01:25 56.9 °F 54.3 °F 30.15 in Calm     91% 0 in 0.00 W/m2
01:30 56.9 °F 54.3 °F 30.15 in ESE 1.2 mph 0.2 mph 91% 0 in 0.00 W/m2
01:35 56.9 °F 54.3 °F 30.15 in Calm     91% 0 in 0.00 W/m2
01:40 56.9 °F 54.3 °F 30.14 in Calm     91% 0 in 0.00 W/m2
01:45 56.9 °F 54.3 °F 30.15 in Calm     91% 0 in 0.00 W/m2
01:50 56.9 °F 54.3 °F 30.15 in ESE 2.3 mph 0.2 mph 91% 0 in 0.00 W/m2
01:55 56.9 °F 54.3 °F 30.14 in Calm     91% 0 in 0.00 W/m2
02:00 57 °F 54.4 °F 30.14 in East 3.5 mph 1.1 mph 91% 0 in 0.00 W/m2
02:05 57 °F 54.4 °F 30.14 in East 1.2 mph 0.1 mph 91% 0 in 0.00 W/m2
02:10 57 °F 54.4 °F 30.14 in ESE 2.3 mph 0.4 mph 91% 0 in 0.00 W/m2
02:15 57 °F 54.4 °F 30.14 in ESE 3.5 mph 0.3 mph 91% 0 in 0.00 W/m2
02:20 56.9 °F 54.3 °F 30.14 in Calm     91% 0 in 0.00 W/m2
02:25 56.9 °F 54.3 °F 30.14 in East 1.2 mph   91% 0 in 0.00 W/m2
02:30 56.8 °F 54.2 °F 30.14 in East 2.3 mph 0.2 mph 91% 0 in 0.00 W/m2
02:35 56.8 °F 54.2 °F 30.14 in East 1.2 mph 0.1 mph 91% 0 in 0.00 W/m2
02:40 56.7 °F 54.1 °F 30.14 in East 2.3 mph 0.2 mph 91% 0 in 0.00 W/m2
02:45 56.7 °F 54.1 °F 30.14 in Calm     91% 0 in 0.00 W/m2
02:50 56.7 °F 54.1 °F 30.14 in East 1.2 mph   91% 0 in 0.00 W/m2
02:55 56.6 °F 54 °F 30.13 in Calm     91% 0 in 0.00 W/m2
03:00 56.6 °F 54 °F 30.13 in Calm     91% 0 in 0.00 W/m2
03:05 56.5 °F 53.9 °F 30.13 in East 2.3 mph 0.6 mph 91% 0 in 0.00 W/m2
03:10 56.5 °F 53.9 °F 30.12 in East 4.6 mph 1.7 mph 91% 0 in 0.00 W/m2
03:15 56.6 °F 54 °F 30.12 in ENE 3.5 mph 0.6 mph 91% 0 in 0.00 W/m2
03:20 56.5 °F 53.9 °F 30.12 in ENE 3.5 mph 0.8 mph 91% 0 in 0.00 W/m2
03:25 56.6 °F 54 °F 30.12 in East 7 mph 1.3 mph 91% 0 in 0.00 W/m2
03:30 56.6 °F 54 °F 30.12 in East 3.5 mph 1.1 mph 91% 0 in 0.00 W/m2
03:35 56.6 °F 54 °F 30.12 in East 2.3 mph 0.3 mph 91% 0 in 0.00 W/m2
03:40 56.6 °F 54 °F 30.12 in ESE 3 mph 0.5 mph 91% 0 in 0.00 W/m2
03:45 56.5 °F 53.9 °F 30.11 in ENE 2.3 mph 0.2 mph 91% 0 in 0.00 W/m2
03:50 56.4 °F 53.8 °F 30.11 in East 4.6 mph 1.3 mph 91% 0 in 0.00 W/m2
03:55 56.4 °F 53.8 °F 30.12 in East 4.6 mph 0.9 mph 91% 0 in 0.00 W/m2
04:00 56.4 °F 53.8 °F 30.12 in Calm     91% 0 in 0.00 W/m2
04:05 56.4 °F 53.8 °F 30.12 in Calm     91% 0 in 0.00 W/m2
04:10 56.4 °F 53.8 °F 30.12 in Calm     91% 0 in 0.00 W/m2
04:15 56.3 °F 53.7 °F 30.11 in Calm     91% 0 in 0.00 W/m2
04:20 56.2 °F 53.9 °F 30.11 in Calm     92% 0 in 0.00 W/m2
04:25 56.1 °F 53.8 °F 30.12 in Calm     92% 0 in 0.00 W/m2
04:30 56.1 °F 53.8 °F 30.12 in Calm     92% 0 in 0.00 W/m2
04:35 55.9 °F 53.6 °F 30.12 in Calm     92% 0 in 0.00 W/m2
04:40 55.8 °F 53.5 °F 30.12 in Calm     92% 0 in 0.00 W/m2
04:45 55.5 °F 53.2 °F 30.12 in Calm     92% 0 in 0.00 W/m2
04:50 55.3 °F 53 °F 30.12 in Calm     92% 0 in 0.00 W/m2
04:55 55.1 °F 52.8 °F 30.12 in Calm     92% 0 in 0.00 W/m2
05:00 54.8 °F 52.5 °F 30.11 in Calm     92% 0 in 0.00 W/m2
05:05 54.6 °F 52.6 °F 30.12 in Calm     93% 0 in 0.00 W/m2
05:10 54.5 °F 52.5 °F 30.12 in Calm     93% 0 in 0.00 W/m2
05:15 54.3 °F 52.3 °F 30.12 in Calm     93% 0 in 0.00 W/m2
05:20 54.2 °F 52.2 °F 30.12 in Calm     93% 0 in 0.00 W/m2
05:25 54 °F 52 °F 30.12 in Calm     93% 0 in 0.00 W/m2
05:30 53.9 °F 51.9 °F 30.12 in Calm     93% 0 in 0.00 W/m2
05:35 53.9 °F 52.2 °F 30.12 in Calm     94% 0 in 0.00 W/m2
05:40 54 °F 52.3 °F 30.11 in East 1.2 mph 0.1 mph 94% 0 in 0.00 W/m2
05:45 54.2 °F 52.5 °F 30.11 in Calm     94% 0 in 0.00 W/m2
05:50 54.4 °F 53 °F 30.11 in Calm     95% 0 in 0.00 W/m2
05:55 54.4 °F 53 °F 30.11 in Calm     95% 0 in 0.00 W/m2
06:00 54.6 °F 53.2 °F 30.11 in East 1.2 mph   95% 0 in 0.00 W/m2
06:05 54.6 °F 52.9 °F 30.11 in Calm     94% 0 in 0.00 W/m2
06:10 54.7 °F 53 °F 30.11 in Calm     94% 0 in 0.00 W/m2
06:15 54.8 °F 53.1 °F 30.11 in East 2.3 mph 0.2 mph 94% 0 in 0.00 W/m2
06:20 54.9 °F 53.5 °F 30.12 in East 2.3 mph 0.3 mph 95% 0 in 7.00 W/m2
06:25 55 °F 53.6 °F 30.12 in Calm     95% 0 in 9.00 W/m2
06:30 55.1 °F 53.7 °F 30.12 in Calm     95% 0 in 12.00 W/m2
06:35 55.2 °F 53.5 °F 30.12 in East 1 mph   94% 0 in 18.00 W/m2
06:40 55.3 °F 53.6 °F 30.12 in East 1.2 mph 0.2 mph 94% 0 in 23.00 W/m2
06:45 55.3 °F 53.6 °F 30.12 in Calm     94% 0 in 26.00 W/m2
06:50 55.4 °F 53.7 °F 30.12 in Calm     94% 0 in 32.00 W/m2
06:55 55.5 °F 53.8 °F 30.12 in Calm     94% 0 in 37.00 W/m2
07:00 55.6 °F 53.9 °F 30.12 in East 1 mph   94% 0 in 42.00 W/m2
07:05 55.7 °F 54.3 °F 30.13 in Calm     95% 0 in 47.00 W/m2
07:10 55.9 °F 54.5 °F 30.13 in ESE 2.3 mph 0.3 mph 95% 0 in 58.00 W/m2
07:15 56.1 °F 54.4 °F 30.12 in East 1.2 mph 0.1 mph 94% 0 in 62.00 W/m2
07:20 56.3 °F 54.9 °F 30.13 in Calm     95% 0 in 69.00 W/m2
07:25 56.5 °F 54.8 °F 30.13 in ESE 1.2 mph 0.2 mph 94% 0 in 76.00 W/m2
07:30 56.7 °F 55 °F 30.13 in East 2 mph   94% 0 in 86.00 W/m2
07:35 57 °F 55.3 °F 30.13 in Calm     94% 0 in 104.00 W/m2
07:40 57.3 °F 55.6 °F 30.13 in East 1.2 mph   94% 0 in 127.00 W/m2
07:45 57.8 °F 56.1 °F 30.13 in East 4.6 mph 1.8 mph 94% 0 in 183.00 W/m2
07:50 58.3 °F 56.6 °F 30.12 in East 6.9 mph 1.3 mph 94% 0 in 139.00 W/m2
07:55 58.7 °F 56.7 °F 30.12 in East 6 mph 2.5 mph 93% 0 in 200.00 W/m2
08:00 59.3 °F 57.3 °F 30.12 in East 5.8 mph 2.6 mph 93% 0 in 179.00 W/m2
08:05 59.6 °F 57.3 °F 30.12 in ESE 4.6 mph 1.9 mph 92% 0 in 229.00 W/m2
08:10 60.1 °F 57.5 °F 30.12 in East 5.8 mph 2.8 mph 91% 0 in 206.00 W/m2
08:15 60.3 °F 57.4 °F 30.12 in ESE 5.8 mph 4.3 mph 90% 0 in 192.00 W/m2
08:20 60.6 °F 57.7 °F 30.12 in East 4.6 mph 2.9 mph 90% 0 in 190.00 W/m2
08:25 60.9 °F 57.6 °F 30.12 in ESE 4.6 mph 3.3 mph 89% 0 in 204.00 W/m2
08:30 61.4 °F 58.1 °F 30.12 in East 5.8 mph 3.8 mph 89% 0 in 246.00 W/m2
08:35 61.9 °F 58.3 °F 30.12 in East 5.8 mph 2.5 mph 88% 0 in 283.00 W/m2
08:40 62.6 °F 59 °F 30.12 in ENE 7 mph 2.9 mph 88% 0 in 283.00 W/m2
08:45 63.3 °F 59.4 °F 30.12 in ESE 5 mph 3.5 mph 87% 0 in 292.00 W/m2
08:50 63.9 °F 59.3 °F 30.12 in East 8.1 mph 3.2 mph 85% 0 in 355.00 W/m2
08:55 64.5 °F 59.6 °F 30.12 in ESE 3.5 mph 2.3 mph 84% 0 in 381.00 W/m2
09:00 65.2 °F 59.6 °F 30.11 in ESE 4.6 mph 3.2 mph 82% 0 in 390.00 W/m2
09:05 65.9 °F 59.9 °F 30.11 in ESE 8.1 mph 5.5 mph 81% 0 in 411.00 W/m2
09:10 66.4 °F 60.4 °F 30.11 in SE 6.9 mph 3.8 mph 81% 0 in 427.00 W/m2
09:15 67.1 °F 60.7 °F 30.11 in SE 5 mph 2.7 mph 80% 0 in 452.00 W/m2
09:20 67.7 °F 61 °F 30.10 in ESE 8.1 mph 4.8 mph 79% 0 in 490.00 W/m2
09:25 68.2 °F 60.3 °F 30.10 in East 10.4 mph 6.7 mph 76% 0 in 555.00 W/m2
09:30 68.6 °F 60.7 °F 30.10 in East 9.2 mph 4.5 mph 76% 0 in 524.00 W/m2
09:35 68.7 °F 60.5 °F 30.09 in East 5.8 mph 2.3 mph 75% 0 in 434.00 W/m2
09:40 69.2 °F 60.2 °F 30.10 in ESE 10.4 mph 6.7 mph 73% 0 in 550.00 W/m2
09:45 69.4 °F 61.1 °F 30.09 in SE 9.2 mph 4.6 mph 75% 0 in 410.00 W/m2
09:50 69.8 °F 60.8 °F 30.10 in SE 8.1 mph 6.1 mph 73% 0 in 448.00 W/m2
09:55 69.7 °F 60.3 °F 30.10 in North 8.1 mph 4.5 mph 72% 0 in 399.00 W/m2
10:00 69.7 °F 59.9 °F 30.09 in ESE 6.9 mph 5 mph 71% 0 in 297.00 W/m2
10:05 69.6 °F 60.6 °F 30.09 in ESE 7 mph 1.8 mph 73% 0 in 272.00 W/m2
10:10 69.2 °F 59.4 °F 30.09 in ESE 6.9 mph 4.1 mph 71% 0 in 236.00 W/m2
10:15 68.9 °F 59.9 °F 30.10 in ESE 6.9 mph 2.2 mph 73% 0 in 246.00 W/m2
10:20 68.8 °F 59.4 °F 30.09 in ESE 6.9 mph 2.9 mph 72% 0 in 325.00 W/m2
10:25 69.4 °F 60.4 °F 30.09 in East 9.2 mph 2.7 mph 73% 0 in 722.00 W/m2
10:30 70.1 °F 59.9 °F 30.09 in ESE 6.9 mph 3 mph 70% 0 in 396.00 W/m2
10:35 70.6 °F 60.7 °F 30.09 in ESE 4.6 mph 2.3 mph 71% 0 in 190.00 W/m2
10:40 70.9 °F 61.4 °F 30.09 in East 6.9 mph 3.7 mph 72% 0 in 772.00 W/m2
10:45 71.7 °F 60.2 °F 30.09 in ENE 10.4 mph 5.9 mph 67% 0 in 577.00 W/m2
10:50 72.4 °F 61.7 °F 30.09 in East 6.9 mph 4.5 mph 69% 0 in 761.00 W/m2
10:55 73.2 °F 60.7 °F 30.09 in ESE 9.2 mph 5.1 mph 65% 0 in 754.00 W/m2
11:00 73.5 °F 60.6 °F 30.09 in ENE 9.2 mph 6 mph 64% 0 in 770.00 W/m2
11:05 73.8 °F 61.3 °F 30.09 in ESE 5.8 mph 3.5 mph 65% 0 in 831.00 W/m2
11:10 74.1 °F 61.6 °F 30.09 in ESE 10.4 mph 5.3 mph 65% 0 in 838.00 W/m2
11:15 74.6 °F 61.6 °F 30.09 in East 6.9 mph 4.2 mph 64% 0 in 847.00 W/m2
11:20 75 °F 62.4 °F 30.09 in East 4.6 mph 1.8 mph 65% 0 in 844.00 W/m2
11:25 75.2 °F 60.8 °F 30.09 in ENE 9.2 mph 5.7 mph 61% 0 in 831.00 W/m2
11:30 75.1 °F 61.2 °F 30.09 in ENE 10.4 mph 7 mph 62% 0 in 613.00 W/m2
11:35 74.9 °F 61.5 °F 30.09 in ESE 5.8 mph 3.7 mph 63% 0 in 740.00 W/m2
11:40 75.3 °F 61.4 °F 30.08 in ESE 9.2 mph 5.9 mph 62% 0 in 919.00 W/m2
11:45 75.8 °F 61.4 °F 30.08 in ESE 8.1 mph 5 mph 61% 0 in 826.00 W/m2
11:50 75.9 °F 60.5 °F 30.08 in ESE 10.4 mph 6.6 mph 59% 0 in 824.00 W/m2
11:55 76 °F 62.5 °F 30.07 in ESE 8 mph 1 mph 63% 0 in 858.00 W/m2
12:00 76.3 °F 60.9 °F 30.07 in East 9.2 mph 5.6 mph 59% 0 in 847.00 W/m2
12:05 76.6 °F 62.1 °F 30.07 in ESE 11.5 mph 5.9 mph 61% 0 in 854.00 W/m2
12:10 76.6 °F 60.2 °F 30.06 in East 12.7 mph 8.5 mph 57% 0 in 851.00 W/m2
12:15 76.8 °F 60.9 °F 30.06 in ENE 11.5 mph 8.3 mph 58% 0 in 895.00 W/m2
12:20 77 °F 60.6 °F 30.06 in ENE 8.1 mph 4.4 mph 57% 0 in 884.00 W/m2
12:25 76.5 °F 60.1 °F 30.06 in East 5.8 mph 2 mph 57% 0 in 434.00 W/m2
12:30 75.9 °F 59.6 °F 30.05 in East 15 mph 7.8 mph 57% 0 in 432.00 W/m2
12:35 75.2 °F 59.9 °F 30.05 in ESE 8.1 mph 5.6 mph 59% 0 in 578.00 W/m2
12:40 76.5 °F 62 °F 30.05 in ESE 9.2 mph 4.4 mph 61% 0 in 1076.00 W/m2
12:45 77.6 °F 60.2 °F 30.05 in East 17.3 mph 11 mph 55% 0 in 1034.00 W/m2
12:50 76.7 °F 59.3 °F 30.05 in East 11.5 mph 7.1 mph 55% 0 in 427.00 W/m2
12:55 75.5 °F 58.7 °F 30.05 in ESE 9.2 mph 4.5 mph 56% 0 in 385.00 W/m2
13:00 74.9 °F 60.5 °F 30.05 in East 6.9 mph 2.9 mph 61% 0 in 367.00 W/m2
13:05 74.5 °F 59.2 °F 30.05 in ESE 7 mph 3.5 mph 59% 0 in 376.00 W/m2
13:10 74.3 °F 60 °F 30.04 in East 8.1 mph 4.5 mph 61% 0 in 533.00 W/m2
13:15 75.2 °F 61.3 °F 30.04 in East 8.1 mph 4.4 mph 62% 0 in 1104.00 W/m2
13:20 77 °F 63 °F 30.04 in East 11.5 mph 6.4 mph 62% 0 in 1049.00 W/m2
13:25 77.8 °F 61.8 °F 30.04 in ESE 12.7 mph 7.5 mph 58% 0 in 1000.00 W/m2
13:30 78.1 °F 61.6 °F 30.04 in East 15 mph 6.8 mph 57% 0 in 916.00 W/m2
13:35 77.9 °F 62.4 °F 30.03 in ENE 11.5 mph 6.8 mph 59% 0 in 893.00 W/m2
13:40 77.7 °F 61.3 °F 30.03 in SE 4.6 mph 2.7 mph 57% 0 in 895.00 W/m2
13:45 77.7 °F 61.3 °F 30.03 in East 9.2 mph 4.9 mph 57% 0 in 902.00 W/m2
13:50 77.6 °F 60.7 °F 30.03 in ENE 10.4 mph 5.4 mph 56% 0 in 1007.00 W/m2
13:55 77.6 °F 60.2 °F 30.03 in East 9.2 mph 5 mph 55% 0 in 766.00 W/m2
14:00 77.3 °F 60.9 °F 30.02 in East 6.9 mph 4.5 mph 57% 0 in 478.00 W/m2
14:05 77.1 °F 61.7 °F 30.02 in East 10.4 mph 6.1 mph 59% 0 in 872.00 W/m2
14:10 77.2 °F 61.3 °F 30.01 in ENE 8.1 mph 5.5 mph 58% 0 in 900.00 W/m2
14:15 77.7 °F 61.3 °F 30.01 in ESE 8.1 mph 4.7 mph 57% 0 in 939.00 W/m2
14:20 77.5 °F 60.1 °F 30.01 in ESE 8.1 mph 2.9 mph 55% 0 in 504.00 W/m2
14:25 76.8 °F 60.4 °F 30.01 in ESE 4.6 mph 3.6 mph 57% 0 in 471.00 W/m2
14:30 76.5 °F 61.1 °F 30.01 in ESE 8.1 mph 3.7 mph 59% 0 in 496.00 W/m2
14:35 76.4 °F 59.5 °F 30.01 in ESE 7 mph 3.5 mph 56% 0 in 533.00 W/m2
14:40 76.5 °F 60.6 °F 30.00 in ESE 6 mph 2.5 mph 58% 0 in 485.00 W/m2
14:45 76.6 °F 61.2 °F 30.00 in East 7 mph 4.8 mph 59% 0 in 503.00 W/m2
14:50 76.9 °F 62 °F 30.00 in East 3.5 mph 1.2 mph 60% 0 in 483.00 W/m2
14:55 77.1 °F 60.2 °F 30.00 in SE 8.1 mph 5.7 mph 56% 0 in 431.00 W/m2
15:00 76.7 °F 60.8 °F 30.00 in East 9.2 mph 5.3 mph 58% 0 in 490.00 W/m2
15:05 77 °F 61.6 °F 29.99 in ESE 8.1 mph 5.2 mph 59% 0 in 615.00 W/m2
15:10 77.5 °F 61.6 °F 29.99 in East 9 mph 2.8 mph 58% 0 in 636.00 W/m2
15:15 77.6 °F 61.7 °F 29.99 in SE 6.9 mph 2.2 mph 58% 0 in 483.00 W/m2
15:20 77.6 °F 61.2 °F 29.99 in East 8.1 mph 4.2 mph 57% 0 in 429.00 W/m2
15:25 77.3 °F 60.9 °F 29.99 in East 6.9 mph 3.1 mph 57% 0 in 397.00 W/m2
15:30 77.4 °F 60.5 °F 29.99 in SE 8.1 mph 3.7 mph 56% 0 in 408.00 W/m2
15:35 77.6 °F 62.1 °F 29.99 in ESE 8.1 mph 3.3 mph 59% 0 in 531.00 W/m2
15:40 78 °F 61.5 °F 29.99 in ESE 4.6 mph 2.2 mph 57% 0 in 466.00 W/m2
15:45 77.5 °F 59.5 °F 29.99 in SE 9.2 mph 6.7 mph 54% 0 in 330.00 W/m2
15:50 76.9 °F 60.5 °F 29.99 in ESE 9.2 mph 2.5 mph 57% 0 in 332.00 W/m2
15:55 76.5 °F 59.6 °F 29.98 in East 5 mph 2.1 mph 56% 0 in 336.00 W/m2
16:00 76.4 °F 61 °F 29.98 in ESE 8.1 mph 2 mph 59% 0 in 378.00 W/m2
16:05 76.5 °F 60.6 °F 29.98 in ESE 4.6 mph 1.4 mph 58% 0 in 353.00 W/m2
Bourbonnais, Illinois, USA
Compliments of Weather Underground - 4 mb